الصفحة الرئيسية
METAR-TAF:

METAR-TAF

مطار :

كوراساو, جزر الأنتيل الهولندية

دائرة عرض: 12-12N, خط طول: 068-58W, ارتفاع: 9 متر

مراقبة الطقس الحالي

تاريخ ووقت الإصدار 1ساعة و 2 دقيقة قبل الساعة 15:00UTC
ريح 9 عقدة من الشرق
درجة الحرارة 29°درجة مئوية
الرطوبة 74%
ضغط 1014 hPa
الرؤية 10 كم أو أكثر
غيوم متفرقة على ارتفاع 1800 قدم

METAR: TNCC 251500Z AUTO 10009KT 9999 SCT018 29/24 Q1014 NOSIG

زمن: 12:02 (16:02 UTC)

توقعات

تاريخ ووقت الإصدار 6ساعات و 2 دقيقة قبل الساعة 10:00UTC
التوقعات صالحة من25 الساعة 12 UTC إلى 26 الساعة 12 UTC
ريح 13 عقدة من الشرق
الرؤية 10 كم أو أكثر
غيوم متفرقة على ارتفاع 2000 قدم
نظرية الاحتمالات 30% :
مؤقت
من 25 الساعة 12 UTC إلى 25 الساعة 16 UTC
الرؤية: 8000 متر
غيوم مفككة على ارتفاع 1500 قدم
زخات من الأمطار الخفيفة

TAF: TNCC 251000Z 2512/2612 09013KT 9999 SCT020 PROB30 TEMPO 2512/2516 8000 -SHRA BKN015

أرصاد الطقس والتوقعات من أكثر من 4000 مطار (تقارير الطقس للمطار METAR والتنبؤ بالطقس بالمطارTAF).

المحطات المتاحة هي النقط الصفراء والحمراء على الخريطة.

حرك المؤشر فوق النقطة لمعرفة اسم المحطة.

ثم انقر لمعرفة أرصاد وتوقعات الطقس.

لتغيير الخارطة: اضغط على الأزرار الخضراء مع رمز الصليب الأسود للتكبير. على الزر الأخضر مع شرطة للتصغير، أو على الأسهم الخضراء للخرائط المجاورة.


METAR-TAF: